createdAt,value
2023-03-22T00:04:49.505Z,14.24
2023-03-22T00:09:51.924Z,14.24
2023-03-22T00:14:55.477Z,14.23
2023-03-22T00:19:58.673Z,14.38
2023-03-22T00:25:00.994Z,14.16
2023-03-22T00:30:05.815Z,13.97
2023-03-22T00:35:08.553Z,14.00
2023-03-22T00:40:14.877Z,13.72
2023-03-22T00:45:17.922Z,13.11
2023-03-22T00:50:20.831Z,13.27
2023-03-22T00:55:23.742Z,13.32
2023-03-22T01:00:25.920Z,13.22
2023-03-22T01:05:28.768Z,13.40
2023-03-22T01:10:31.611Z,13.68
2023-03-22T01:15:34.042Z,13.55
2023-03-22T01:20:36.554Z,13.57
2023-03-22T01:25:38.698Z,13.52
2023-03-22T01:30:41.466Z,13.35
2023-03-22T01:35:43.945Z,13.31
2023-03-22T01:40:46.113Z,13.41
2023-03-22T01:45:49.491Z,13.44
2023-03-22T01:51:03.520Z,13.28
2023-03-22T01:56:06.480Z,13.14
2023-03-22T02:01:11.556Z,13.09
2023-03-22T02:06:13.774Z,12.95
2023-03-22T02:11:25.789Z,13.02
2023-03-22T02:16:47.119Z,13.06
2023-03-22T02:22:17.056Z,13.13
2023-03-22T02:27:49.900Z,13.05
2023-03-22T02:33:07.459Z,13.14
2023-03-22T02:38:18.481Z,12.91
2023-03-22T02:43:21.079Z,12.58
2023-03-22T02:48:28.638Z,12.79
2023-03-22T02:53:48.028Z,12.92
2023-03-22T02:58:57.745Z,13.06
2023-03-22T03:04:05.140Z,12.94
2023-03-22T03:09:08.449Z,13.16
2023-03-22T03:14:21.152Z,13.21
2023-03-22T03:19:52.117Z,13.38
2023-03-22T03:25:25.267Z,13.27
2023-03-22T03:30:43.542Z,13.22
2023-03-22T03:35:59.008Z,12.93
2023-03-22T03:41:09.474Z,13.23
2023-03-22T03:46:12.367Z,13.10
2023-03-22T03:51:14.558Z,13.06
2023-03-22T03:56:16.681Z,12.82
2023-03-22T04:01:20.037Z,12.92
2023-03-22T04:06:22.235Z,12.98
2023-03-22T04:11:24.345Z,12.88
2023-03-22T04:16:26.624Z,12.09
2023-03-22T04:21:28.810Z,12.45
2023-03-22T04:26:32.516Z,12.83
2023-03-22T04:31:36.938Z,13.04
2023-03-22T04:36:42.216Z,12.91
2023-03-22T04:41:44.261Z,12.89
2023-03-22T04:46:46.530Z,12.82
2023-03-22T04:51:48.798Z,12.85
2023-03-22T04:56:51.329Z,12.81
2023-03-22T05:01:54.633Z,12.93
2023-03-22T05:06:56.793Z,13.01
2023-03-22T05:11:58.908Z,13.19
2023-03-22T05:17:01.199Z,13.30
2023-03-22T05:22:03.388Z,13.43
2023-03-22T05:27:06.197Z,13.35
2023-03-22T05:32:08.320Z,13.64
2023-03-22T05:37:10.636Z,13.62
2023-03-22T05:42:12.763Z,13.40
2023-03-22T05:47:14.950Z,13.34
2023-03-22T05:52:17.157Z,13.32
2023-03-22T05:57:19.346Z,13.30
2023-03-22T06:02:22.494Z,13.55
2023-03-22T06:07:25.737Z,13.71
2023-03-22T06:12:30.093Z,13.66
2023-03-22T06:17:32.781Z,13.68
2023-03-22T06:22:35.434Z,13.58
2023-03-22T06:27:38.360Z,13.49
2023-03-22T06:32:40.605Z,13.71
2023-03-22T06:37:42.866Z,13.85
2023-03-22T06:42:44.985Z,14.02
2023-03-22T06:47:47.100Z,14.31
2023-03-22T06:52:49.367Z,14.73
2023-03-22T06:57:51.536Z,14.62
2023-03-22T07:02:53.697Z,14.38
2023-03-22T07:07:55.965Z,14.61
2023-03-22T07:12:58.628Z,14.52
2023-03-22T07:18:02.046Z,14.78
2023-03-22T07:23:04.588Z,14.95
2023-03-22T07:28:07.382Z,15.04
2023-03-22T07:33:10.893Z,15.23
2023-03-22T07:38:13.575Z,15.17
2023-03-22T07:43:16.186Z,15.13
2023-03-22T07:48:22.432Z,15.30
2023-03-22T07:53:24.831Z,15.45
2023-03-22T07:58:27.100Z,15.65
2023-03-22T08:03:29.290Z,15.93
2023-03-22T08:08:32.323Z,16.09
2023-03-22T08:13:35.286Z,16.10
2023-03-22T08:18:38.449Z,16.30
2023-03-22T08:23:42.357Z,16.50
2023-03-22T08:28:44.945Z,16.71
2023-03-22T08:33:48.525Z,17.20
2023-03-22T08:38:50.863Z,17.42
2023-03-22T08:43:53.001Z,17.50
2023-03-22T08:48:55.315Z,17.62
2023-03-22T08:54:00.703Z,17.72
2023-03-22T08:59:03.053Z,17.88
2023-03-22T09:04:06.052Z,17.91
2023-03-22T09:09:08.475Z,17.58
2023-03-22T09:14:11.074Z,17.70
2023-03-22T09:19:13.316Z,17.80
2023-03-22T09:24:15.427Z,18.18
2023-03-22T09:29:17.798Z,18.11
2023-03-22T09:34:20.210Z,18.15
2023-03-22T09:39:22.892Z,18.12
2023-03-22T09:44:32.647Z,18.04
2023-03-22T09:49:53.061Z,18.03
2023-03-22T09:54:56.162Z,18.04
2023-03-22T10:00:19.067Z,18.14
2023-03-22T10:05:30.627Z,18.25
2023-03-22T10:10:32.956Z,18.34
2023-03-22T10:15:39.356Z,18.65
2023-03-22T10:21:07.264Z,18.70
2023-03-22T10:26:18.722Z,18.49
2023-03-22T10:31:22.401Z,19.06
2023-03-22T10:36:31.676Z,19.38
2023-03-22T10:41:35.245Z,19.99
2023-03-22T10:46:43.130Z,19.88
2023-03-22T10:51:52.114Z,20.14
2023-03-22T10:56:54.306Z,20.12
2023-03-22T11:01:56.680Z,19.66
2023-03-22T11:06:58.987Z,19.98
2023-03-22T11:12:02.004Z,19.59
2023-03-22T11:17:06.858Z,19.96
2023-03-22T11:22:26.737Z,19.95
2023-03-22T11:27:33.266Z,19.84
2023-03-22T11:32:40.148Z,19.46
2023-03-22T11:37:43.341Z,19.26
2023-03-22T11:42:46.816Z,19.16
2023-03-22T11:47:49.394Z,19.19
2023-03-22T11:52:52.847Z,19.21
2023-03-22T11:57:57.990Z,19.30
2023-03-22T12:03:20.772Z,19.10
2023-03-22T12:08:44.255Z,19.50
2023-03-22T12:14:00.107Z,19.52
2023-03-22T12:19:14.062Z,19.85
2023-03-22T12:24:28.642Z,20.06
2023-03-22T12:29:32.957Z,19.78
2023-03-22T12:34:44.030Z,19.65
2023-03-22T12:40:01.326Z,19.91
2023-03-22T12:45:12.134Z,20.10
2023-03-22T12:50:29.321Z,20.55
2023-03-22T12:55:36.119Z,20.67
2023-03-22T13:00:49.996Z,20.84
2023-03-22T13:06:02.505Z,21.25
2023-03-22T13:11:05.952Z,21.40
2023-03-22T13:16:11.429Z,21.52
2023-03-22T13:21:17.616Z,21.67
2023-03-22T13:26:20.922Z,21.78
2023-03-22T13:31:58.821Z,21.58
2023-03-22T13:37:03.913Z,21.53
2023-03-22T13:42:22.198Z,21.43
2023-03-22T13:48:29.402Z,21.90
2023-03-22T13:53:37.864Z,22.49
2023-03-22T13:58:48.707Z,22.64
2023-03-22T14:03:51.550Z,21.89
2023-03-22T14:09:02.896Z,21.79
2023-03-22T14:14:13.756Z,21.82
2023-03-22T14:19:23.695Z,21.83
